createdAt,value
2018-09-17T00:00:56.143Z,25.00
2018-09-17T00:03:23.766Z,25.00
2018-09-17T00:05:51.467Z,25.00
2018-09-17T00:08:19.071Z,25.00
2018-09-17T00:10:46.711Z,25.00
2018-09-17T00:13:14.449Z,25.00
2018-09-17T00:15:42.081Z,25.00
2018-09-17T00:18:09.709Z,25.00
2018-09-17T00:20:37.361Z,25.00
2018-09-17T00:23:05.115Z,25.00
2018-09-17T00:25:32.783Z,25.00
2018-09-17T00:28:00.735Z,25.00
2018-09-17T00:30:28.345Z,25.00
2018-09-17T00:32:56.133Z,24.90
2018-09-17T00:35:23.762Z,24.90
2018-09-17T00:37:51.531Z,24.90
2018-09-17T00:40:19.329Z,24.90
2018-09-17T00:42:47.046Z,24.90
2018-09-17T00:45:15.256Z,25.00
2018-09-17T00:47:42.888Z,24.90
2018-09-17T00:50:10.733Z,24.90
2018-09-17T00:52:38.337Z,24.90
2018-09-17T00:55:06.709Z,24.90
2018-09-17T00:57:34.437Z,24.90
2018-09-17T01:00:02.161Z,24.90
2018-09-17T01:02:29.921Z,24.90
2018-09-17T01:04:57.548Z,24.90
2018-09-17T01:07:25.347Z,24.90
2018-09-17T01:09:52.997Z,24.90
2018-09-17T01:12:20.779Z,24.90
2018-09-17T01:14:48.385Z,24.90
2018-09-17T01:17:16.201Z,24.90
2018-09-17T01:19:43.865Z,24.90
2018-09-17T01:22:11.551Z,24.90
2018-09-17T01:24:39.189Z,24.90
2018-09-17T01:27:06.885Z,24.90
2018-09-17T01:29:34.532Z,24.90
2018-09-17T01:32:02.244Z,24.90
2018-09-17T01:34:30.037Z,24.90
2018-09-17T01:36:57.741Z,24.80
2018-09-17T01:39:25.465Z,24.90
2018-09-17T01:41:53.101Z,24.80
2018-09-17T01:44:20.730Z,24.90
2018-09-17T01:46:48.351Z,24.90
2018-09-17T01:49:16.021Z,24.80
2018-09-17T01:51:43.712Z,24.80
2018-09-17T01:54:11.389Z,24.80
2018-09-17T01:56:39.075Z,24.80
2018-09-17T01:59:06.755Z,24.80
2018-09-17T02:01:34.548Z,24.80
2018-09-17T02:04:02.201Z,24.80
2018-09-17T02:06:29.870Z,24.80
2018-09-17T02:08:57.620Z,24.80
2018-09-17T02:11:25.246Z,24.80
2018-09-17T02:13:53.213Z,24.80
2018-09-17T02:16:21.277Z,24.80
2018-09-17T02:18:48.936Z,24.80
2018-09-17T02:21:16.802Z,24.80
2018-09-17T02:23:44.467Z,24.80
2018-09-17T02:26:12.395Z,24.80
2018-09-17T02:28:40.076Z,24.80
2018-09-17T02:31:07.752Z,24.80
2018-09-17T02:33:35.375Z,24.80
2018-09-17T02:36:03.033Z,24.80
2018-09-17T02:38:30.680Z,24.80
2018-09-17T02:40:58.323Z,24.80
2018-09-17T02:43:26.107Z,24.80
2018-09-17T02:45:53.807Z,24.80
2018-09-17T02:48:21.641Z,24.80
2018-09-17T02:50:49.413Z,24.80
2018-09-17T02:53:17.071Z,24.80
2018-09-17T02:55:44.787Z,24.80
2018-09-17T02:58:12.428Z,24.80
2018-09-17T03:00:40.081Z,24.80
2018-09-17T03:03:07.719Z,24.80
2018-09-17T03:05:35.469Z,24.80
2018-09-17T03:08:03.135Z,24.80
2018-09-17T03:10:30.786Z,24.80
2018-09-17T03:12:58.474Z,24.80
2018-09-17T03:15:31.818Z,24.70
2018-09-17T03:17:59.489Z,24.80
2018-09-17T03:20:27.173Z,24.80
2018-09-17T03:22:54.795Z,24.70
2018-09-17T03:25:22.459Z,24.70
2018-09-17T03:27:50.207Z,24.70
2018-09-17T03:30:17.832Z,24.70
2018-09-17T03:32:45.601Z,24.70
2018-09-17T03:35:13.261Z,24.70
2018-09-17T03:37:40.947Z,24.70
2018-09-17T03:40:08.635Z,24.70
2018-09-17T03:42:36.443Z,24.70
2018-09-17T03:45:04.067Z,24.70
2018-09-17T03:47:31.973Z,24.70
2018-09-17T03:49:59.589Z,24.70
2018-09-17T03:52:27.387Z,24.70
2018-09-17T03:54:55.013Z,24.70
2018-09-17T03:57:22.618Z,24.70
2018-09-17T03:59:50.482Z,24.70
2018-09-17T04:02:18.200Z,24.70
2018-09-17T04:04:46.022Z,24.70
2018-09-17T04:07:13.769Z,24.70
2018-09-17T04:09:43.892Z,24.70
2018-09-17T04:12:11.813Z,24.70
2018-09-17T04:14:39.448Z,24.70
2018-09-17T04:17:07.270Z,24.70
2018-09-17T04:19:34.901Z,24.70
2018-09-17T04:22:02.645Z,24.70
2018-09-17T04:24:30.324Z,24.60
2018-09-17T04:26:58.002Z,24.70
2018-09-17T04:29:25.809Z,24.70
2018-09-17T04:31:53.472Z,24.70
2018-09-17T04:34:21.234Z,24.70
2018-09-17T04:36:48.913Z,24.70
2018-09-17T04:39:18.431Z,24.70
2018-09-17T04:41:46.059Z,24.70
2018-09-17T04:44:13.684Z,24.70
2018-09-17T04:46:41.606Z,24.70
2018-09-17T04:49:09.542Z,24.70
2018-09-17T04:51:37.367Z,24.70
2018-09-17T04:54:05.738Z,24.60
2018-09-17T04:56:33.532Z,24.70
2018-09-17T04:59:01.187Z,24.60
2018-09-17T05:01:28.939Z,24.60
2018-09-17T05:03:56.596Z,24.70
2018-09-17T05:06:24.421Z,24.70
2018-09-17T05:08:52.068Z,24.70
2018-09-17T05:11:19.748Z,24.70
2018-09-17T05:13:47.716Z,24.70
2018-09-17T05:16:15.373Z,24.60
2018-09-17T05:18:43.000Z,24.60
2018-09-17T05:21:10.644Z,24.70
2018-09-17T05:23:38.373Z,24.70
2018-09-17T05:26:06.058Z,24.70
2018-09-17T05:28:33.763Z,24.70
2018-09-17T05:31:01.460Z,24.70
2018-09-17T05:33:29.103Z,24.70
2018-09-17T05:35:56.740Z,24.70
2018-09-17T05:38:24.440Z,24.70
2018-09-17T05:40:52.082Z,24.60
2018-09-17T05:43:19.780Z,24.70
2018-09-17T05:45:47.525Z,24.60
2018-09-17T05:48:15.235Z,24.70
2018-09-17T05:50:42.890Z,24.60
2018-09-17T05:53:10.709Z,24.60
2018-09-17T05:55:38.344Z,24.60
2018-09-17T05:58:06.001Z,24.60
2018-09-17T06:00:33.701Z,24.60
2018-09-17T06:03:01.329Z,24.50
2018-09-17T06:05:29.444Z,24.50
2018-09-17T06:07:57.510Z,24.50
2018-09-17T06:10:25.220Z,24.50
2018-09-17T06:12:54.071Z,24.60
2018-09-17T06:15:21.837Z,24.60
2018-09-17T06:17:49.529Z,24.60
2018-09-17T06:20:17.195Z,24.60
2018-09-17T06:22:44.822Z,24.60
2018-09-17T06:25:12.520Z,24.60
2018-09-17T06:27:40.173Z,24.50
2018-09-17T06:30:07.842Z,24.60
2018-09-17T06:32:35.468Z,24.60
2018-09-17T06:35:03.197Z,24.60
2018-09-17T06:37:30.864Z,24.60
2018-09-17T06:39:58.560Z,24.60
2018-09-17T06:42:26.308Z,24.60
2018-09-17T06:44:53.990Z,24.60
2018-09-17T06:47:21.632Z,24.60
2018-09-17T06:49:49.494Z,24.60
2018-09-17T06:52:17.168Z,24.60
2018-09-17T06:54:44.805Z,24.60
2018-09-17T06:57:12.556Z,24.60
2018-09-17T06:59:40.321Z,24.60
2018-09-17T07:02:08.045Z,24.60
2018-09-17T07:04:35.833Z,24.60
2018-09-17T07:07:03.734Z,24.60
2018-09-17T07:09:31.391Z,24.60
2018-09-17T07:11:59.046Z,24.60
2018-09-17T07:14:26.800Z,24.60
2018-09-17T07:16:54.438Z,24.60
2018-09-17T07:19:22.115Z,24.60
2018-09-17T07:21:49.760Z,24.60
2018-09-17T07:24:17.426Z,24.60
2018-09-17T07:26:45.229Z,24.60
2018-09-17T07:29:13.011Z,24.60
2018-09-17T07:31:40.660Z,24.60
2018-09-17T07:34:08.373Z,24.60
2018-09-17T07:36:36.130Z,24.60
2018-09-17T07:39:04.273Z,24.70
2018-09-17T07:41:31.903Z,24.60
2018-09-17T07:43:59.527Z,24.60
2018-09-17T07:46:27.192Z,24.60
2018-09-17T07:48:54.871Z,24.70
2018-09-17T07:51:22.539Z,24.70
2018-09-17T07:53:50.369Z,24.70
2018-09-17T07:56:18.035Z,24.70
2018-09-17T07:58:45.806Z,24.70
2018-09-17T08:01:13.479Z,24.70
2018-09-17T08:03:42.088Z,24.70
2018-09-17T08:06:09.707Z,24.80
2018-09-17T08:08:37.391Z,24.80
2018-09-17T08:11:05.075Z,24.80
2018-09-17T08:13:32.748Z,24.90
2018-09-17T08:16:00.349Z,24.90
2018-09-17T08:18:27.976Z,24.90
2018-09-17T08:20:55.610Z,24.90
2018-09-17T08:23:23.268Z,24.90
2018-09-17T08:25:51.000Z,25.00
2018-09-17T08:28:18.693Z,24.90
2018-09-17T08:30:46.507Z,25.00
2018-09-17T08:33:14.157Z,25.00
2018-09-17T08:35:41.797Z,25.00
2018-09-17T08:38:09.538Z,25.00
2018-09-17T08:40:37.253Z,25.00
2018-09-17T08:43:05.083Z,25.00
2018-09-17T08:45:32.787Z,25.00
2018-09-17T08:48:00.547Z,25.00
2018-09-17T08:50:28.305Z,25.00
2018-09-17T08:52:56.054Z,25.00
2018-09-17T08:56:29.067Z,25.00
2018-09-17T08:58:59.766Z,25.00
2018-09-17T09:01:29.961Z,25.00
2018-09-17T09:04:03.082Z,25.00
2018-09-17T09:06:36.407Z,25.00
2018-09-17T09:09:07.849Z,25.00
2018-09-17T09:11:41.088Z,25.00
2018-09-17T09:14:14.031Z,25.00
2018-09-17T09:16:41.917Z,25.10
2018-09-17T09:19:09.623Z,25.10
2018-09-17T09:21:37.221Z,25.10
2018-09-17T09:24:04.995Z,25.20
2018-09-17T09:26:32.643Z,25.10
2018-09-17T09:29:00.321Z,25.10
2018-09-17T09:31:28.047Z,25.10
2018-09-17T09:33:55.711Z,25.10
2018-09-17T09:36:23.357Z,25.10
2018-09-17T09:38:51.139Z,25.20
2018-09-17T09:41:18.787Z,25.20
2018-09-17T09:43:46.648Z,25.20
2018-09-17T09:46:14.530Z,25.10
2018-09-17T09:48:42.181Z,25.20
2018-09-17T09:51:09.903Z,25.10
2018-09-17T09:53:37.518Z,25.10
2018-09-17T09:56:05.129Z,25.20
2018-09-17T09:58:33.262Z,25.20
2018-09-17T10:01:06.265Z,25.20
2018-09-17T10:03:39.314Z,25.10
2018-09-17T10:06:06.904Z,25.20
2018-09-17T10:08:39.137Z,25.20
2018-09-17T10:11:12.250Z,25.10
2018-09-17T10:14:49.079Z,25.20
2018-09-17T10:17:22.276Z,25.20
2018-09-17T10:19:51.218Z,25.20
2018-09-17T10:22:19.469Z,25.10
2018-09-17T10:24:47.313Z,25.20
2018-09-17T10:27:15.700Z,25.20
2018-09-17T10:29:43.467Z,25.10
2018-09-17T10:32:11.663Z,25.20
2018-09-17T10:34:39.306Z,25.10
2018-09-17T10:37:07.191Z,25.10
2018-09-17T10:39:34.833Z,25.20
2018-09-17T10:42:02.485Z,25.20
2018-09-17T10:44:30.123Z,25.20
2018-09-17T10:46:57.790Z,25.20
2018-09-17T10:49:25.442Z,25.20
2018-09-17T10:51:53.107Z,25.20
2018-09-17T10:54:20.959Z,25.20
2018-09-17T10:56:48.613Z,25.20
2018-09-17T10:59:16.307Z,25.20
2018-09-17T11:01:44.087Z,25.20
2018-09-17T11:04:11.954Z,25.20
2018-09-17T11:06:39.887Z,25.20
2018-09-17T11:09:11.007Z,25.20
2018-09-17T11:11:38.707Z,25.20
2018-09-17T11:14:06.729Z,25.20
2018-09-17T11:16:34.445Z,25.20
2018-09-17T11:19:02.174Z,25.20
2018-09-17T11:21:29.917Z,25.20
2018-09-17T11:23:57.648Z,25.20
2018-09-17T11:26:25.439Z,25.10
2018-09-17T11:28:53.101Z,25.20
2018-09-17T11:31:27.365Z,25.20
2018-09-17T11:33:55.075Z,25.20
2018-09-17T11:36:22.733Z,25.20
2018-09-17T11:38:50.382Z,25.20
2018-09-17T11:41:18.113Z,25.20
2018-09-17T11:43:45.796Z,25.20
2018-09-17T11:46:13.431Z,25.20
2018-09-17T11:48:41.062Z,25.20
2018-09-17T11:51:08.811Z,25.20
2018-09-17T11:53:36.478Z,25.20
2018-09-17T11:56:04.171Z,25.20
2018-09-17T11:58:31.785Z,25.20
2018-09-17T12:01:04.850Z,25.20
2018-09-17T12:03:38.058Z,25.20
2018-09-17T12:06:05.831Z,25.20
2018-09-17T12:08:33.546Z,25.20
2018-09-17T12:11:01.218Z,25.10
2018-09-17T12:13:28.974Z,25.20
2018-09-17T12:15:56.640Z,25.10
2018-09-17T12:18:24.328Z,25.20
2018-09-17T12:20:51.960Z,25.20
2018-09-17T12:23:19.670Z,25.20
2018-09-17T12:25:47.340Z,25.20
2018-09-17T12:28:15.022Z,25.20
2018-09-17T12:30:42.744Z,25.20
2018-09-17T12:33:10.412Z,25.20
2018-09-17T12:35:38.032Z,25.10
2018-09-17T12:38:05.772Z,25.10
2018-09-17T12:40:33.453Z,25.20
2018-09-17T12:43:01.180Z,25.10
2018-09-17T12:45:28.830Z,25.20
2018-09-17T12:47:56.488Z,25.10
2018-09-17T12:50:24.330Z,25.10
2018-09-17T12:52:52.092Z,25.20
2018-09-17T12:55:19.990Z,25.20
2018-09-17T12:57:47.734Z,25.20
2018-09-17T13:00:15.692Z,25.10
2018-09-17T13:02:43.439Z,25.20
2018-09-17T13:05:11.102Z,25.10
2018-09-17T13:07:38.864Z,25.10
2018-09-17T13:10:06.633Z,25.20
2018-09-17T13:12:34.280Z,25.10
2018-09-17T13:15:01.955Z,25.20
2018-09-17T13:17:29.722Z,25.10
2018-09-17T13:19:57.364Z,25.10
2018-09-17T13:22:25.100Z,25.10
2018-09-17T13:24:52.865Z,25.20
2018-09-17T13:27:20.518Z,25.10
2018-09-17T13:29:48.175Z,25.10
2018-09-17T13:32:15.884Z,25.20
2018-09-17T13:34:43.610Z,25.20
2018-09-17T13:37:11.535Z,25.20
2018-09-17T13:39:39.437Z,25.20
2018-09-17T13:42:07.236Z,25.20
2018-09-17T13:44:35.054Z,25.20
2018-09-17T13:47:02.815Z,25.20
2018-09-17T13:49:30.491Z,25.20
2018-09-17T13:51:58.209Z,25.20
2018-09-17T13:54:25.936Z,25.20
2018-09-17T13:56:53.898Z,25.20
2018-09-17T13:59:21.583Z,25.20
2018-09-17T14:01:49.265Z,25.20
2018-09-17T14:04:16.905Z,25.20
2018-09-17T14:06:44.646Z,25.20
2018-09-17T14:09:13.434Z,25.20
2018-09-17T14:11:41.497Z,25.30
2018-09-17T14:14:09.097Z,25.20
2018-09-17T14:16:37.037Z,25.30
2018-09-17T14:19:04.870Z,25.30
2018-09-17T14:21:32.670Z,25.30
2018-09-17T14:24:00.610Z,25.30
2018-09-17T14:26:28.898Z,25.30
2018-09-17T14:28:56.572Z,25.30
2018-09-17T14:31:29.777Z,25.30
2018-09-17T14:33:57.477Z,25.30
2018-09-17T14:36:25.518Z,25.30
2018-09-17T14:38:53.118Z,25.30
2018-09-17T14:41:21.026Z,25.30
2018-09-17T14:43:48.799Z,25.30
2018-09-17T14:46:16.745Z,25.30
2018-09-17T14:48:44.431Z,25.30
2018-09-17T14:51:12.084Z,25.30
2018-09-17T14:53:39.734Z,25.30
2018-09-17T14:56:07.731Z,25.30
2018-09-17T14:58:35.387Z,25.30
2018-09-17T15:01:03.122Z,25.30
2018-09-17T15:03:30.696Z,25.30
2018-09-17T15:05:59.156Z,25.30
2018-09-17T15:08:26.926Z,25.30
2018-09-17T15:10:54.539Z,25.30
2018-09-17T15:13:22.233Z,25.30
2018-09-17T15:15:55.109Z,25.30
2018-09-17T15:18:22.997Z,25.30
2018-09-17T15:20:50.687Z,25.30
2018-09-17T15:23:18.366Z,25.40
2018-09-17T15:25:46.077Z,25.30
2018-09-17T15:28:13.792Z,25.30
2018-09-17T15:30:41.415Z,25.30
2018-09-17T15:33:09.129Z,25.40
2018-09-17T15:35:36.803Z,25.40
2018-09-17T15:38:04.796Z,25.40
2018-09-17T15:40:32.527Z,25.30
2018-09-17T15:43:00.292Z,25.40
2018-09-17T15:45:27.943Z,25.40
2018-09-17T15:47:55.579Z,25.40
2018-09-17T15:50:23.496Z,25.50
2018-09-17T15:52:51.379Z,25.60
2018-09-17T15:55:19.159Z,25.70
2018-09-17T15:57:47.080Z,25.80
2018-09-17T16:00:14.744Z,25.90
2018-09-17T16:02:42.493Z,26.00
2018-09-17T16:05:10.192Z,26.20
2018-09-17T16:07:38.166Z,26.50
2018-09-17T16:10:06.209Z,27.00
2018-09-17T16:12:34.135Z,27.00
2018-09-17T16:15:01.805Z,26.90
2018-09-17T16:17:29.561Z,27.00
2018-09-17T16:19:57.282Z,27.00
2018-09-17T16:22:25.133Z,27.10
2018-09-17T16:24:52.853Z,27.30
2018-09-17T16:27:20.623Z,27.30
2018-09-17T16:29:48.311Z,27.40
2018-09-17T16:32:15.981Z,27.30
2018-09-17T16:34:43.655Z,27.30
2018-09-17T16:37:11.472Z,27.30
2018-09-17T16:39:39.147Z,27.30
2018-09-17T16:42:06.878Z,27.20
2018-09-17T16:44:34.636Z,27.20
2018-09-17T16:47:02.659Z,27.10
2018-09-17T16:49:30.313Z,27.00
2018-09-17T16:51:58.129Z,27.00
2018-09-17T16:54:25.797Z,26.90
2018-09-17T16:56:53.517Z,26.90
2018-09-17T16:59:21.487Z,26.80
2018-09-17T17:01:49.106Z,26.70
2018-09-17T17:04:17.037Z,26.60
2018-09-17T17:06:44.794Z,26.50
2018-09-17T17:09:12.532Z,26.40
2018-09-17T17:11:40.369Z,26.30
2018-09-17T17:14:08.027Z,26.10
2018-09-17T17:16:35.673Z,26.00
2018-09-17T17:19:04.003Z,25.90
2018-09-17T17:21:31.654Z,25.90
2018-09-17T17:24:01.661Z,25.80
2018-09-17T17:26:29.325Z,25.80
2018-09-17T17:28:57.021Z,25.70
2018-09-17T17:31:24.946Z,25.70
2018-09-17T17:33:52.914Z,25.70
2018-09-17T17:36:20.504Z,25.70
2018-09-17T17:38:48.167Z,25.70
2018-09-17T17:41:15.910Z,25.70
2018-09-17T17:43:43.620Z,25.70
2018-09-17T17:46:11.424Z,25.70
2018-09-17T17:48:39.285Z,25.70
2018-09-17T17:51:08.481Z,25.70
2018-09-17T17:53:36.207Z,25.70
2018-09-17T17:56:03.846Z,25.70
2018-09-17T17:58:31.736Z,25.70
2018-09-17T18:00:59.461Z,25.70
2018-09-17T18:03:27.214Z,25.70
2018-09-17T18:05:54.958Z,25.70
2018-09-17T18:08:22.768Z,25.70
2018-09-17T18:10:50.469Z,25.70
2018-09-17T18:13:18.251Z,25.70
2018-09-17T18:15:45.904Z,25.70
2018-09-17T18:18:13.625Z,25.70
2018-09-17T18:20:41.362Z,25.70
2018-09-17T18:23:09.023Z,25.60
2018-09-17T18:25:36.686Z,25.60
2018-09-17T18:28:04.517Z,25.60
2018-09-17T18:30:32.164Z,25.60
2018-09-17T18:32:59.849Z,25.60
2018-09-17T18:35:27.534Z,25.60
2018-09-17T18:37:55.180Z,25.60
2018-09-17T18:40:22.929Z,25.60
2018-09-17T18:42:50.838Z,25.60
2018-09-17T18:45:18.611Z,25.60
2018-09-17T18:47:46.401Z,25.60
2018-09-17T18:50:14.044Z,25.60
2018-09-17T18:52:41.707Z,25.50
2018-09-17T18:55:09.504Z,25.50
2018-09-17T18:57:37.156Z,25.50
2018-09-17T19:00:04.819Z,25.50
2018-09-17T19:02:32.484Z,25.50
2018-09-17T19:05:00.180Z,25.50
2018-09-17T19:07:28.009Z,25.50
2018-09-17T19:09:55.928Z,25.50
2018-09-17T19:12:23.936Z,25.50
2018-09-17T19:14:57.039Z,25.50
2018-09-17T19:17:29.914Z,25.50
2018-09-17T19:19:57.687Z,25.50
2018-09-17T19:22:30.869Z,25.50
2018-09-17T19:24:58.488Z,25.50
2018-09-17T19:27:31.428Z,25.40
2018-09-17T19:29:59.214Z,25.50
2018-09-17T19:32:26.846Z,25.40
2018-09-17T19:34:54.550Z,25.50
2018-09-17T19:37:27.814Z,25.50
2018-09-17T19:40:01.021Z,25.50
2018-09-17T19:42:28.671Z,25.50
2018-09-17T19:45:01.886Z,25.50
2018-09-17T19:47:29.562Z,25.40
2018-09-17T19:49:57.333Z,25.40
2018-09-17T19:52:25.449Z,25.50
2018-09-17T19:54:53.977Z,25.50
2018-09-17T19:57:27.096Z,25.40
2018-09-17T19:59:56.587Z,25.50
2018-09-17T20:02:24.548Z,25.50
2018-09-17T20:04:57.771Z,25.50
2018-09-17T20:07:25.544Z,25.40
2018-09-17T20:09:53.482Z,25.40
2018-09-17T20:12:21.484Z,25.40
2018-09-17T20:14:49.293Z,25.50
2018-09-17T20:17:16.910Z,25.40
2018-09-17T20:19:44.966Z,25.40
2018-09-17T20:22:12.714Z,25.40
2018-09-17T20:24:41.153Z,25.40
2018-09-17T20:27:09.188Z,25.40
2018-09-17T20:29:36.900Z,25.40
2018-09-17T20:32:04.583Z,25.40
2018-09-17T20:34:32.250Z,25.40
2018-09-17T20:37:01.046Z,25.30
2018-09-17T20:39:28.710Z,25.30
2018-09-17T20:41:56.384Z,25.40
2018-09-17T20:44:24.049Z,25.40
2018-09-17T20:46:52.192Z,25.40
2018-09-17T20:49:19.940Z,25.40
2018-09-17T20:51:47.685Z,25.40
2018-09-17T20:54:15.813Z,25.40
2018-09-17T20:56:43.573Z,25.30
2018-09-17T20:59:11.371Z,25.40
2018-09-17T21:01:39.093Z,25.40
2018-09-17T21:04:06.804Z,25.30
2018-09-17T21:06:34.516Z,25.40
2018-09-17T21:09:02.303Z,25.40
2018-09-17T21:11:29.973Z,25.30
2018-09-17T21:13:57.648Z,25.40
2018-09-17T21:16:25.304Z,25.30
2018-09-17T21:18:53.181Z,25.30
2018-09-17T21:21:20.826Z,25.40
2018-09-17T21:23:48.498Z,25.30
2018-09-17T21:26:16.142Z,25.30
2018-09-17T21:28:43.848Z,25.30
2018-09-17T21:31:11.536Z,25.30
2018-09-17T21:33:39.235Z,25.30
2018-09-17T21:36:07.102Z,25.30
2018-09-17T21:38:34.809Z,25.30
2018-09-17T21:41:02.449Z,25.30
2018-09-17T21:43:30.066Z,25.30
2018-09-17T21:45:57.800Z,25.30
2018-09-17T21:48:25.482Z,25.30
2018-09-17T21:50:53.080Z,25.30
2018-09-17T21:53:20.906Z,25.30
2018-09-17T21:55:48.619Z,25.30
2018-09-17T21:58:16.473Z,25.30
2018-09-17T22:00:49.663Z,25.30
2018-09-17T22:03:17.320Z,25.30
2018-09-17T22:05:45.092Z,25.30
2018-09-17T22:08:12.832Z,25.30
2018-09-17T22:10:40.478Z,25.20
2018-09-17T22:13:08.167Z,25.30
2018-09-17T22:15:35.905Z,25.30
2018-09-17T22:18:03.558Z,25.30
2018-09-17T22:20:31.232Z,25.30
2018-09-17T22:22:58.916Z,25.30
2018-09-17T22:25:26.564Z,25.20
2018-09-17T22:27:54.302Z,25.20
2018-09-17T22:30:22.089Z,25.20
2018-09-17T22:32:49.845Z,25.20
2018-09-17T22:35:17.649Z,25.20
2018-09-17T22:37:45.253Z,25.20
2018-09-17T22:40:12.898Z,25.20
2018-09-17T22:42:40.684Z,25.20
2018-09-17T22:45:08.360Z,25.20
2018-09-17T22:47:36.094Z,25.20
2018-09-17T22:50:03.746Z,25.20
2018-09-17T22:52:31.542Z,25.20
2018-09-17T22:54:59.288Z,25.20
2018-09-17T22:57:26.963Z,25.20
2018-09-17T22:59:54.654Z,25.20
2018-09-17T23:02:22.454Z,25.20
2018-09-17T23:04:50.408Z,25.10
2018-09-17T23:07:18.070Z,25.20
2018-09-17T23:09:45.811Z,25.20
2018-09-17T23:12:13.471Z,25.20
2018-09-17T23:14:41.192Z,25.20
2018-09-17T23:17:08.917Z,25.20
2018-09-17T23:19:36.586Z,25.10
2018-09-17T23:22:04.230Z,25.10
2018-09-17T23:24:31.874Z,25.10
2018-09-17T23:26:59.490Z,25.10
2018-09-17T23:29:27.238Z,25.10
2018-09-17T23:31:54.996Z,25.10
2018-09-17T23:34:22.673Z,25.10
2018-09-17T23:36:50.318Z,25.10
2018-09-17T23:39:17.959Z,25.10
2018-09-17T23:41:45.701Z,25.10
2018-09-17T23:44:13.371Z,25.00
2018-09-17T23:46:41.048Z,25.10
2018-09-17T23:49:08.692Z,25.10
2018-09-17T23:51:36.359Z,25.10
2018-09-17T23:54:04.450Z,25.10
2018-09-17T23:56:32.108Z,25.10
2018-09-17T23:58:59.694Z,25.10
